This is the latest recevied weather packets stored in our database for station/object LROP. If no packets are shown the sender has not sent any weather packets the latest 1 day(s).
| Time | Temp. | Humidity | Pressure | Rain* | Wind** | Luminosity | Snow |
|---|---|---|---|---|---|---|---|
| 1777998782 | 20° C | 60% | 1013 hPa | - | 2.24 m/s, 210° | - | - |
| 1777997882 | 21.11° C | 53% | 1013 hPa | - | 1.34 m/s, 230° | - | - |
| 1777996982 | 21.11° C | 53% | 1013 hPa | - | 1.34 m/s, 230° | - | - |
| 1777992482 | 25° C | 32% | 1014 hPa | - | 2.24 m/s, 240° | - | - |
| 1777991582 | 25° C | 32% | 1014 hPa | - | 2.24 m/s, 240° | - | - |
| 1777990682 | 26.11° C | 32% | 1014 hPa | - | 2.24 m/s, 240° | - | - |
| 1777989781 | 26.11° C | 32% | 1014 hPa | - | 2.24 m/s, 240° | - | - |
| 1777988920 | 25° C | 34% | 1014 hPa | - | 2.68 m/s, 240° | - | - |
| 1777987982 | 25° C | 34% | 1014 hPa | - | 2.68 m/s, 240° | - | - |
| 1777985282 | 23.89° C | 36% | 1014 hPa | - | 1.34 m/s, 180° | - | - |
| 1777984382 | 23.89° C | 36% | 1014 hPa | - | 1.34 m/s, 180° | - | - |
| 1777983482 | 23.89° C | 39% | 1014 hPa | - | 3.13 m/s, 250° | - | - |
| 1777979882 | 23.89° C | 39% | 1015 hPa | - | 2.68 m/s, 250° | - | - |
| 1777978982 | 23.89° C | 39% | 1015 hPa | - | 2.68 m/s, 250° | - | - |
| 1777972682 | 22.22° C | 44% | 1016 hPa | - | 1.34 m/s, 230° | - | - |
| 1777971782 | 22.22° C | 44% | 1016 hPa | - | 1.34 m/s, 230° | - | - |
| 1777969082 | 20° C | 53% | 1016 hPa | - | 1.34 m/s, 120° | - | - |
| 1777968182 | 20° C | 53% | 1016 hPa | - | 1.34 m/s, 120° | - | - |
| 1777963682 | 17.22° C | 64% | 1016 hPa | - | 1.34 m/s, 90° | - | - |
| 1777962782 | 17.22° C | 64% | 1016 hPa | - | 1.34 m/s, 90° | - | - |
| 1777958282 | 12.78° C | 77% | 1016 hPa | - | 1.34 m/s, 20° | - | - |
| 1777957382 | 12.78° C | 77% | 1016 hPa | - | 1.34 m/s, 20° | - | - |
| 1777952882 | 8.89° C | 94% | 1015 hPa | - | 1.34 m/s, 350° | - | - |
| 1777951982 | 8.89° C | 94% | 1015 hPa | - | 1.34 m/s, 350° | - | - |
| 1777949282 | 8.89° C | 94% | 1015 hPa | - | 1.34 m/s, 350° | - | - |
* Rain since midnight (hover to see other rain measurements)
** Current wind speed in m/s (hover to see current wind gust speed)